Time;durP1;ratioP1;P1;durP2;ratioP2;P2;SDS_P1;SDS_P2;PMS_P1;PMS_P2;Temp;Humidity;BMP_temperature;BMP_pressure;BME280_temperature;BME280_humidity;BME280_pressure;Samples;Min_cycle;Max_cycle;Signal;HPM_P1;HPM_P2
2022/02/05 00:00:35;;;;;;;14.38;5.32;;;;;;;;;;5081990;28;20027;-80
2022/02/05 00:03:40;;;;;;;2.33;2.03;;;;;;;;;;5068303;28;20606;-81
2022/02/05 00:05:57;;;;;;;14.77;1.58;;;;;;;;;;5065943;28;20024;-81
2022/02/05 00:40:44;;;;;;;3.05;1.80;;;;;;;;;;5067532;28;20066;-79
2022/02/05 00:43:03;;;;;;;0.30;0.30;;;;;;;;;;5064343;28;20931;-80
2022/02/05 00:45:33;;;;;;;4.40;1.50;;;;;;;;;;5080807;28;20032;-80
2022/02/05 00:48:01;;;;;;;8.05;5.60;;;;;;;;;;5076572;28;20020;-79
2022/02/05 00:50:29;;;;;;;10.18;4.82;;;;;;;;;;5076820;28;20459;-80
2022/02/05 00:53:01;;;;;;;6.43;3.22;;;;;;;;;;5076117;28;20051;-79
2022/02/05 00:55:31;;;;;;;14.73;7.38;;;;;;;;;;5076532;28;20051;-79
2022/02/05 00:58:02;;;;;;;20.48;14.20;;;;;;;;;;5076833;28;20467;-80
2022/02/05 01:00:28;;;;;;;15.30;8.57;;;;;;;;;;5078952;28;20040;-79
2022/02/05 01:02:54;;;;;;;2.17;1.90;;;;;;;;;;5071746;28;20040;-79
2022/02/05 01:05:20;;;;;;;3.35;2.78;;;;;;;;;;5072827;28;20420;-79
2022/02/05 01:07:47;;;;;;;1.17;1.10;;;;;;;;;;5082403;28;20029;-79
2022/02/05 01:10:14;;;;;;;1.38;0.90;;;;;;;;;;5078201;28;20024;-80
2022/02/05 01:12:45;;;;;;;0.30;0.22;;;;;;;;;;5073353;28;20036;-80
2022/02/05 01:15:12;;;;;;;1.92;1.83;;;;;;;;;;5065731;28;20035;-81
2022/02/05 01:17:44;;;;;;;;;;;;;;;;;;5071172;28;20028;-79
2022/02/05 01:22:45;;;;;;;1.00;1.00;;;;;;;;;;5065598;28;20595;-80
2022/02/05 01:25:12;;;;;;;0.73;0.43;;;;;;;;;;5065059;28;20064;-80
2022/02/05 01:27:48;;;;;;;0.98;0.75;;;;;;;;;;5066765;28;20040;-80
2022/02/05 01:30:21;;;;;;;2.67;1.02;;;;;;;;;;5069382;28;20166;-79
2022/02/05 01:33:01;;;;;;;1.88;0.57;;;;;;;;;;5067220;28;20891;-81
2022/02/05 01:52:16;;;;;;;0.80;0.80;;;;;;;;;;4996878;28;20042;-81
2022/02/05 01:57:44;;;;;;;0.52;0.52;;;;;;;;;;4984665;28;20037;-81
2022/02/05 02:05:51;;;;;;;1.02;0.68;;;;;;;;;;4997105;28;20858;-81
2022/02/05 02:11:28;;;;;;;1.08;0.85;;;;;;;;;;4994850;28;20185;-81
2022/02/05 02:19:38;;;;;;;0.70;0.70;;;;;;;;;;5011794;28;20044;-81
2022/02/05 02:22:12;;;;;;;0.60;0.60;;;;;;;;;;5006636;28;20072;-81
2022/02/05 02:31:59;;;;;;;0.38;0.38;;;;;;;;;;5007142;28;20775;-80
2022/02/05 02:34:30;;;;;;;0.37;0.30;;;;;;;;;;5007929;28;20041;-80
2022/02/05 02:37:00;;;;;;;0.10;0.10;;;;;;;;;;5015081;28;20029;-81
2022/02/05 02:39:33;;;;;;;0.17;0.17;;;;;;;;;;5013405;28;20062;-81
2022/02/05 02:42:07;;;;;;;0.30;0.30;;;;;;;;;;5009552;28;20041;-79
2022/02/05 02:44:33;;;;;;;0.17;0.17;;;;;;;;;;5007659;28;20636;-79
2022/02/05 02:46:59;;;;;;;0.60;0.40;;;;;;;;;;5009170;28;20037;-79
2022/02/05 02:57:53;;;;;;;0.40;0.40;;;;;;;;;;5029922;28;20039;-81
2022/02/05 03:00:19;;;;;;;0.13;0.13;;;;;;;;;;5028003;28;20423;-81
2022/02/05 03:02:45;;;;;;;0.70;0.70;;;;;;;;;;5040729;28;20040;-82
2022/02/05 03:05:12;;;;;;;0.20;0.20;;;;;;;;;;5037968;28;20367;-80
2022/02/05 03:07:38;;;;;;;0.20;0.20;;;;;;;;;;5035223;28;20121;-81
2022/02/05 03:10:04;;;;;;;0.95;0.22;;;;;;;;;;5046718;28;20120;-81
2022/02/05 03:12:31;;;;;;;0.28;0.28;;;;;;;;;;5027227;28;20024;-81
2022/02/05 03:14:57;;;;;;;0.10;0.10;;;;;;;;;;5034334;28;20334;-81
2022/02/05 03:17:25;;;;;;;0.43;0.43;;;;;;;;;;5033869;28;20064;-81
2022/02/05 03:19:52;;;;;;;0.10;0.10;;;;;;;;;;5050178;28;20044;-82
2022/02/05 03:22:18;;;;;;;;;;;;;;;;;;5035112;28;20017;-80
2022/02/05 03:24:44;;;;;;;0.00;0.00;;;;;;;;;;5040194;28;20032;-81
2022/02/05 03:27:12;;;;;;;0.00;0.00;;;;;;;;;;5039677;28;20029;-81
2022/02/05 03:29:39;;;;;;;0.00;0.00;;;;;;;;;;5027277;28;20045;-81
2022/02/05 03:32:06;;;;;;;0.10;0.10;;;;;;;;;;5033128;28;20024;-82
2022/02/05 03:34:32;;;;;;;0.80;0.25;;;;;;;;;;5051394;28;20021;-81
2022/02/05 03:36:58;;;;;;;0.10;0.10;;;;;;;;;;5044069;28;20527;-80
2022/02/05 03:39:24;;;;;;;0.30;0.30;;;;;;;;;;5040046;28;20556;-80
2022/02/05 03:41:50;;;;;;;0.10;0.10;;;;;;;;;;5038310;28;20278;-80
2022/02/05 03:44:16;;;;;;;0.50;0.50;;;;;;;;;;5029879;28;20037;-80
2022/02/05 03:46:42;;;;;;;0.20;0.20;;;;;;;;;;5032107;28;20035;-81
2022/02/05 03:49:08;;;;;;;0.20;0.20;;;;;;;;;;5028975;28;20705;-81
2022/02/05 03:51:34;;;;;;;0.53;0.40;;;;;;;;;;5034675;28;20037;-81
2022/02/05 03:54:01;;;;;;;0.50;0.50;;;;;;;;;;5081120;28;20846;-81
2022/02/05 03:56:27;;;;;;;0.30;0.30;;;;;;;;;;5081508;28;20072;-81
2022/02/05 03:58:53;;;;;;;0.37;0.37;;;;;;;;;;5071848;28;20288;-81
2022/02/05 04:01:19;;;;;;;0.10;0.10;;;;;;;;;;5078501;28;20027;-82
2022/02/05 04:03:45;;;;;;;0.10;0.10;;;;;;;;;;5078860;28;20123;-82
2022/02/05 04:06:11;;;;;;;0.20;0.20;;;;;;;;;;5078440;28;20024;-80
2022/02/05 04:08:37;;;;;;;0.25;0.25;;;;;;;;;;5072029;28;20157;-81
2022/02/05 04:11:26;;;;;;;0.10;0.10;;;;;;;;;;5073562;28;20111;-80
2022/02/05 04:16:36;;;;;;;0.10;0.10;;;;;;;;;;5069931;28;20047;-81
2022/02/05 04:19:02;;;;;;;0.38;0.38;;;;;;;;;;5069469;28;20024;-82
2022/02/05 04:21:29;;;;;;;0.37;0.37;;;;;;;;;;5076618;28;20028;-82
2022/02/05 04:23:56;;;;;;;0.45;0.20;;;;;;;;;;5078604;28;20032;-80
2022/02/05 04:26:22;;;;;;;0.10;0.10;;;;;;;;;;5058666;28;20393;-80
2022/02/05 04:28:48;;;;;;;0.10;0.10;;;;;;;;;;5072216;28;20035;-79
2022/02/05 04:31:14;;;;;;;0.50;0.50;;;;;;;;;;5078819;28;20824;-79
2022/02/05 04:33:40;;;;;;;6.53;3.10;;;;;;;;;;5067185;28;20479;-79
2022/02/05 04:36:07;;;;;;;0.27;0.27;;;;;;;;;;5059749;28;20028;-78
2022/02/05 04:38:34;;;;;;;0.10;0.10;;;;;;;;;;5069439;28;20039;-78
2022/02/05 04:41:07;;;;;;;0.65;0.57;;;;;;;;;;5069634;28;20024;-78
2022/02/05 04:43:55;;;;;;;0.20;0.20;;;;;;;;;;5068458;28;20189;-79
2022/02/05 04:51:51;;;;;;;3.50;0.40;;;;;;;;;;5077133;28;20037;-79
2022/02/05 05:04:33;;;;;;;0.20;0.20;;;;;;;;;;5035230;28;20511;-79
2022/02/05 05:20:03;;;;;;;0.10;0.10;;;;;;;;;;5030486;28;20123;-80
2022/02/05 05:22:29;;;;;;;1.10;0.25;;;;;;;;;;5037422;28;20022;-81
2022/02/05 05:24:55;;;;;;;0.50;0.50;;;;;;;;;;5028772;28;20060;-81
2022/02/05 05:27:21;;;;;;;0.17;0.17;;;;;;;;;;5039738;28;20032;-80
2022/02/05 05:29:47;;;;;;;0.10;0.10;;;;;;;;;;5032043;28;20060;-81
2022/02/05 05:32:13;;;;;;;0.10;0.10;;;;;;;;;;5047029;28;20041;-80
2022/02/05 05:34:39;;;;;;;0.32;0.32;;;;;;;;;;5031577;28;20033;-81
2022/02/05 05:37:05;;;;;;;0.10;0.10;;;;;;;;;;5030455;28;20484;-80
2022/02/05 05:39:33;;;;;;;0.40;0.40;;;;;;;;;;5035037;28;20445;-80
2022/02/05 05:42:00;;;;;;;0.20;0.20;;;;;;;;;;5028938;28;20034;-80
2022/02/05 05:47:34;;;;;;;0.68;0.20;;;;;;;;;;5022066;28;20559;-80
2022/02/05 05:50:10;;;;;;;0.47;0.47;;;;;;;;;;5021712;28;20033;-79
2022/02/05 05:52:36;;;;;;;4.38;1.48;;;;;;;;;;5021502;28;20132;-79
2022/02/05 05:55:03;;;;;;;0.80;0.68;;;;;;;;;;5022282;28;20120;-79
2022/02/05 05:57:29;;;;;;;0.10;0.10;;;;;;;;;;5040805;28;20073;-79
2022/02/05 05:59:55;;;;;;;0.35;0.35;;;;;;;;;;5034473;28;20042;-79
2022/02/05 06:02:21;;;;;;;0.80;0.22;;;;;;;;;;5029216;28;20021;-79
2022/02/05 06:04:47;;;;;;;0.67;0.40;;;;;;;;;;5033990;28;20072;-79
2022/02/05 06:07:13;;;;;;;0.17;0.17;;;;;;;;;;5029831;28;20033;-80
2022/02/05 06:09:43;;;;;;;0.20;0.20;;;;;;;;;;5025999;28;20034;-79
2022/02/05 06:12:10;;;;;;;0.55;0.50;;;;;;;;;;5009456;28;20408;-82
2022/02/05 06:14:36;;;;;;;;;;;;;;;;;;5028758;28;20579;-83
2022/02/05 06:17:07;;;;;;;0.15;0.15;;;;;;;;;;5037767;28;20106;-80
2022/02/05 06:19:33;;;;;;;0.10;0.10;;;;;;;;;;5037214;28;20029;-81
2022/02/05 06:21:59;;;;;;;0.23;0.23;;;;;;;;;;5035998;28;20041;-80
2022/02/05 06:24:25;;;;;;;0.20;0.20;;;;;;;;;;5056360;28;20060;-82
2022/02/05 06:26:51;;;;;;;1.65;1.15;;;;;;;;;;5057136;28;20028;-81
2022/02/05 06:29:17;;;;;;;0.60;0.52;;;;;;;;;;5064840;28;20435;-77
2022/02/05 06:31:43;;;;;;;0.60;0.52;;;;;;;;;;5052098;28;20163;-78
2022/02/05 06:34:09;;;;;;;0.57;0.57;;;;;;;;;;5058037;28;20040;-80
2022/02/05 06:36:36;;;;;;;0.40;0.40;;;;;;;;;;5054784;28;20040;-83
2022/02/05 06:39:02;;;;;;;;;;;;;;;;;;5052736;28;20028;-82
2022/02/05 06:41:28;;;;;;;2.95;1.63;;;;;;;;;;5047849;28;20778;-80
2022/02/05 06:43:54;;;;;;;0.67;0.67;;;;;;;;;;5065685;28;20733;-79
2022/02/05 06:46:20;;;;;;;5.35;1.83;;;;;;;;;;5055176;28;20020;-79
2022/02/05 06:48:46;;;;;;;1.08;0.98;;;;;;;;;;5054406;28;20037;-81
2022/02/05 06:51:12;;;;;;;0.10;0.10;;;;;;;;;;5049434;28;20099;-80
2022/02/05 06:53:39;;;;;;;3.50;1.98;;;;;;;;;;5065849;28;20047;-79
2022/02/05 06:56:05;;;;;;;0.73;0.47;;;;;;;;;;5069124;28;20065;-79
2022/02/05 06:58:31;;;;;;;0.53;0.53;;;;;;;;;;5069567;28;21325;-77
2022/02/05 07:00:57;;;;;;;0.20;0.20;;;;;;;;;;5072727;28;20283;-78
2022/02/05 07:03:23;;;;;;;0.40;0.40;;;;;;;;;;5070008;28;20090;-78
2022/02/05 07:05:50;;;;;;;2.53;2.33;;;;;;;;;;5072280;28;20078;-78
2022/02/05 07:08:16;;;;;;;0.35;0.30;;;;;;;;;;5066082;28;20086;-79
2022/02/05 07:10:42;;;;;;;0.77;0.20;;;;;;;;;;5068902;28;20027;-79
2022/02/05 07:15:39;;;;;;;0.10;0.10;;;;;;;;;;5085498;28;20147;-78
2022/02/05 07:20:42;;;;;;;0.00;0.00;;;;;;;;;;5079467;28;20478;-81
2022/02/05 07:31:20;;;;;;;0.10;0.10;;;;;;;;;;5069239;28;20039;-79
2022/02/05 07:33:46;;;;;;;0.00;0.00;;;;;;;;;;5065293;28;20056;-79
2022/02/05 07:36:13;;;;;;;0.45;0.25;;;;;;;;;;5078056;28;20738;-78
2022/02/05 07:38:39;;;;;;;;;;;;;;;;;;5073899;28;20036;-79
2022/02/05 07:41:05;;;;;;;0.90;0.90;;;;;;;;;;5068412;28;20456;-79
2022/02/05 07:43:35;;;;;;;0.00;0.00;;;;;;;;;;5074708;28;20148;-78
2022/02/05 07:46:05;;;;;;;0.10;0.10;;;;;;;;;;5066212;28;20278;-78
2022/02/05 07:48:32;;;;;;;0.10;0.10;;;;;;;;;;5071475;28;20066;-78
2022/02/05 07:51:00;;;;;;;3.13;1.23;;;;;;;;;;5072983;28;20028;-78
2022/02/05 07:53:26;;;;;;;0.38;0.38;;;;;;;;;;5064708;28;20040;-78
2022/02/05 07:55:52;;;;;;;1.38;1.10;;;;;;;;;;5070276;28;20067;-78
2022/02/05 07:58:18;;;;;;;0.10;0.10;;;;;;;;;;5067395;28;20020;-78
2022/02/05 08:00:44;;;;;;;0.00;0.00;;;;;;;;;;5065885;28;20028;-78
2022/02/05 08:03:10;;;;;;;3.83;2.00;;;;;;;;;;5064861;28;20033;-77
2022/02/05 08:05:36;;;;;;;0.10;0.10;;;;;;;;;;5068883;28;20028;-78
2022/02/05 08:08:06;;;;;;;0.10;0.10;;;;;;;;;;5066072;28;20028;-78
2022/02/05 08:10:36;;;;;;;0.10;0.10;;;;;;;;;;5069106;28;20554;-78
2022/02/05 08:13:02;;;;;;;0.10;0.10;;;;;;;;;;5071059;28;20077;-78
2022/02/05 08:15:31;;;;;;;0.10;0.10;;;;;;;;;;5067853;28;20113;-78
2022/02/05 08:17:58;;;;;;;0.10;0.10;;;;;;;;;;5067206;28;20055;-78
2022/02/05 08:20:25;;;;;;;0.00;0.00;;;;;;;;;;5065768;28;20139;-77
2022/02/05 08:22:51;;;;;;;0.00;0.00;;;;;;;;;;5063350;28;20111;-78
2022/02/05 08:25:17;;;;;;;0.10;0.10;;;;;;;;;;5065395;28;20641;-78
2022/02/05 08:27:44;;;;;;;0.00;0.00;;;;;;;;;;5064320;28;20062;-78
2022/02/05 08:30:12;;;;;;;0.10;0.10;;;;;;;;;;5048516;28;20027;-78
2022/02/05 08:32:39;;;;;;;0.00;0.00;;;;;;;;;;5067429;28;20506;-78
2022/02/05 08:35:06;;;;;;;0.10;0.10;;;;;;;;;;5065275;28;20016;-78
2022/02/05 08:37:32;;;;;;;;;;;;;;;;;;5065908;28;20170;-78
2022/02/05 08:39:59;;;;;;;0.00;0.00;;;;;;;;;;5064445;28;20330;-77
2022/02/05 08:42:25;;;;;;;0.10;0.10;;;;;;;;;;5065010;28;20035;-78
2022/02/05 08:44:51;;;;;;;0.00;0.00;;;;;;;;;;5066758;28;20083;-78
2022/02/05 08:47:17;;;;;;;0.00;0.00;;;;;;;;;;5067063;28;20031;-78
2022/02/05 08:49:43;;;;;;;0.10;0.10;;;;;;;;;;5065363;28;21791;-77
2022/02/05 08:52:10;;;;;;;0.10;0.10;;;;;;;;;;5048267;28;20048;-77
2022/02/05 08:54:37;;;;;;;0.10;0.10;;;;;;;;;;5072204;28;20031;-78
2022/02/05 08:57:03;;;;;;;;;;;;;;;;;;5057619;28;20574;-78
2022/02/05 08:59:39;;;;;;;0.00;0.00;;;;;;;;;;5074071;28;20054;-77
2022/02/05 09:02:14;;;;;;;0.00;0.00;;;;;;;;;;5072523;28;20038;-77
2022/02/05 09:07:19;;;;;;;0.00;0.00;;;;;;;;;;5072338;28;20036;-77
2022/02/05 09:10:10;;;;;;;0.03;0.03;;;;;;;;;;5063723;28;20398;-78
2022/02/05 09:15:03;;;;;;;1.40;0.73;;;;;;;;;;5081895;28;20666;-78
2022/02/05 09:17:29;;;;;;;0.10;0.10;;;;;;;;;;5078081;28;20055;-78
2022/02/05 09:19:56;;;;;;;0.10;0.10;;;;;;;;;;5072965;28;20028;-78
2022/02/05 09:22:22;;;;;;;0.30;0.30;;;;;;;;;;5069327;28;20036;-78
2022/02/05 09:24:48;;;;;;;0.00;0.00;;;;;;;;;;5068522;28;20036;-77
2022/02/05 09:27:16;;;;;;;1.27;1.17;;;;;;;;;;5069140;28;20028;-78
2022/02/05 09:29:56;;;;;;;0.13;0.13;;;;;;;;;;5071141;28;20028;-78
2022/02/05 09:32:23;;;;;;;0.03;0.03;;;;;;;;;;5066972;28;20555;-78
2022/02/05 09:34:49;;;;;;;1.73;1.13;;;;;;;;;;5074692;28;20504;-78
2022/02/05 09:37:15;;;;;;;0.10;0.10;;;;;;;;;;5065226;28;20344;-78
2022/02/05 09:39:43;;;;;;;0.10;0.10;;;;;;;;;;5047218;28;20085;-77
2022/02/05 09:42:11;;;;;;;0.10;0.10;;;;;;;;;;5068372;28;20021;-77
2022/02/05 09:44:37;;;;;;;0.10;0.10;;;;;;;;;;5069926;28;20067;-78
2022/02/05 09:47:03;;;;;;;0.00;0.00;;;;;;;;;;5068726;28;20020;-78
2022/02/05 09:49:29;;;;;;;0.35;0.35;;;;;;;;;;5064642;28;20078;-78
2022/02/05 09:52:11;;;;;;;0.20;0.20;;;;;;;;;;5068172;28;20048;-79
2022/02/05 09:54:38;;;;;;;0.00;0.00;;;;;;;;;;5068279;28;20032;-80
2022/02/05 09:57:05;;;;;;;0.10;0.10;;;;;;;;;;5070566;28;20044;-79
2022/02/05 09:59:41;;;;;;;0.13;0.13;;;;;;;;;;5078219;28;20723;-80
2022/02/05 10:02:19;;;;;;;0.10;0.10;;;;;;;;;;5072675;28;20505;-79
2022/02/05 10:04:57;;;;;;;0.00;0.00;;;;;;;;;;5053297;28;20078;-79
2022/02/05 10:07:24;;;;;;;6.07;1.65;;;;;;;;;;5066204;28;20028;-79
2022/02/05 10:09:53;;;;;;;0.10;0.10;;;;;;;;;;5063793;28;20031;-80
2022/02/05 10:12:19;;;;;;;0.10;0.10;;;;;;;;;;5067220;28;20098;-79
2022/02/05 10:14:50;;;;;;;0.22;0.22;;;;;;;;;;5071122;28;20024;-80
2022/02/05 10:17:16;;;;;;;0.10;0.10;;;;;;;;;;5078891;28;20059;-79
2022/02/05 10:19:46;;;;;;;0.00;0.00;;;;;;;;;;5068267;28;20051;-79
2022/02/05 10:22:12;;;;;;;0.10;0.10;;;;;;;;;;5071413;28;20086;-79
2022/02/05 10:24:51;;;;;;;0.07;0.07;;;;;;;;;;5068593;28;20032;-79
2022/02/05 10:27:30;;;;;;;0.10;0.10;;;;;;;;;;5066460;28;20661;-80
2022/02/05 10:30:05;;;;;;;0.32;0.32;;;;;;;;;;5047999;28;20047;-79
2022/02/05 10:32:31;;;;;;;0.10;0.10;;;;;;;;;;5049202;28;20403;-79
2022/02/05 10:35:04;;;;;;;0.55;0.30;;;;;;;;;;5068592;28;20836;-81
2022/02/05 10:37:35;;;;;;;0.10;0.10;;;;;;;;;;5067979;28;20028;-78
2022/02/05 10:40:10;;;;;;;0.10;0.10;;;;;;;;;;5080263;28;20023;-78
2022/02/05 10:45:45;;;;;;;0.10;0.10;;;;;;;;;;5013860;28;20050;-78
2022/02/05 10:48:15;;;;;;;0.00;0.00;;;;;;;;;;5000604;28;20515;-79
2022/02/05 10:50:42;;;;;;;0.10;0.10;;;;;;;;;;5020044;28;20745;-79
2022/02/05 10:53:20;;;;;;;0.10;0.10;;;;;;;;;;5017396;28;20076;-82
2022/02/05 10:56:04;;;;;;;0.75;0.65;;;;;;;;;;5016221;28;20030;-82
2022/02/05 11:06:54;;;;;;;0.08;0.08;;;;;;;;;;5011904;28;20052;-80
2022/02/05 11:09:20;;;;;;;;;;;;;;;;;;5013662;28;20037;-79
2022/02/05 11:19:54;;;;;;;0.55;0.55;;;;;;;;;;5045958;28;20045;-78
2022/02/05 11:22:21;;;;;;;0.07;0.07;;;;;;;;;;5074323;28;20074;-78
2022/02/05 11:24:48;;;;;;;0.10;0.10;;;;;;;;;;5065154;28;20044;-78
2022/02/05 11:27:14;;;;;;;0.10;0.10;;;;;;;;;;5073765;28;20028;-78
2022/02/05 11:29:40;;;;;;;0.00;0.00;;;;;;;;;;5068443;28;20032;-78
2022/02/05 11:32:36;;;;;;;0.20;0.20;;;;;;;;;;5072265;28;20027;-77
2022/02/05 11:35:04;;;;;;;1.10;0.47;;;;;;;;;;5040443;28;20035;-77
2022/02/05 11:37:30;;;;;;;0.10;0.10;;;;;;;;;;5072931;28;20031;-77
2022/02/05 11:39:56;;;;;;;0.00;0.00;;;;;;;;;;5066928;28;20027;-77
2022/02/05 11:42:25;;;;;;;0.40;0.40;;;;;;;;;;5055106;28;20512;-77
2022/02/05 11:44:51;;;;;;;0.47;0.30;;;;;;;;;;5075345;28;20048;-77
2022/02/05 11:47:17;;;;;;;0.27;0.27;;;;;;;;;;5072583;28;20111;-77
2022/02/05 11:49:53;;;;;;;0.20;0.20;;;;;;;;;;5069179;28;20292;-77
2022/02/05 11:52:37;;;;;;;0.10;0.10;;;;;;;;;;5069984;28;20040;-77
2022/02/05 11:55:04;;;;;;;0.20;0.20;;;;;;;;;;5071169;28;20268;-77
2022/02/05 11:57:45;;;;;;;0.10;0.10;;;;;;;;;;5073420;28;20438;-77
2022/02/05 12:00:24;;;;;;;0.20;0.20;;;;;;;;;;5077794;28;20028;-77
2022/02/05 12:03:03;;;;;;;0.40;0.40;;;;;;;;;;5073177;28;20036;-77
2022/02/05 12:05:33;;;;;;;0.10;0.10;;;;;;;;;;5071992;28;20063;-77
2022/02/05 12:08:05;;;;;;;0.35;0.35;;;;;;;;;;5065585;28;20110;-77
2022/02/05 12:10:37;;;;;;;9.02;0.43;;;;;;;;;;5072703;28;20103;-77
2022/02/05 12:13:40;;;;;;;0.00;0.00;;;;;;;;;;5067271;28;20040;-78
2022/02/05 12:16:07;;;;;;;0.65;0.65;;;;;;;;;;5066754;28;20031;-77
2022/02/05 12:18:53;;;;;;;0.30;0.30;;;;;;;;;;5068005;28;20032;-77
2022/02/05 12:21:27;;;;;;;0.40;0.40;;;;;;;;;;5066264;28;20741;-77
2022/02/05 12:26:29;;;;;;;0.20;0.20;;;;;;;;;;5067508;28;20035;-77
2022/02/05 12:28:55;;;;;;;0.63;0.63;;;;;;;;;;5070963;28;20135;-77
2022/02/05 12:31:25;;;;;;;0.10;0.10;;;;;;;;;;5072916;28;20107;-77
2022/02/05 12:33:59;;;;;;;0.10;0.10;;;;;;;;;;5072695;28;20419;-77
2022/02/05 12:36:35;;;;;;;0.10;0.10;;;;;;;;;;5079927;28;20040;-77
2022/02/05 12:39:01;;;;;;;;;;;;;;;;;;5087484;28;20083;-77
2022/02/05 12:41:30;;;;;;;0.13;0.13;;;;;;;;;;5068354;28;19912;-77
2022/02/05 12:43:56;;;;;;;0.10;0.10;;;;;;;;;;5079444;28;20040;-78
2022/02/05 12:46:26;;;;;;;0.10;0.10;;;;;;;;;;5079492;28;20089;-78
2022/02/05 12:48:58;;;;;;;0.45;0.45;;;;;;;;;;5073046;28;20515;-77
2022/02/05 12:51:25;;;;;;;0.32;0.17;;;;;;;;;;5079364;28;20025;-77
2022/02/05 12:53:51;;;;;;;0.32;0.32;;;;;;;;;;5072076;28;20084;-78
2022/02/05 12:56:19;;;;;;;0.10;0.10;;;;;;;;;;5078859;28;20020;-78
2022/02/05 12:59:04;;;;;;;0.10;0.10;;;;;;;;;;5077018;28;20418;-78
2022/02/05 13:01:31;;;;;;;0.10;0.10;;;;;;;;;;5076223;28;20021;-78
2022/02/05 13:04:10;;;;;;;0.10;0.10;;;;;;;;;;5080882;28;20101;-78
2022/02/05 13:06:36;;;;;;;0.05;0.05;;;;;;;;;;5077240;28;20038;-78
2022/02/05 13:09:03;;;;;;;0.40;0.40;;;;;;;;;;5078871;28;20030;-78
2022/02/05 13:11:31;;;;;;;0.17;0.17;;;;;;;;;;5070525;28;20111;-77
2022/02/05 13:13:57;;;;;;;0.10;0.10;;;;;;;;;;5076853;28;20056;-78
2022/02/05 13:16:25;;;;;;;0.10;0.10;;;;;;;;;;5080921;28;20546;-78
2022/02/05 13:19:06;;;;;;;0.85;0.40;;;;;;;;;;5056101;28;20052;-77
2022/02/05 13:24:59;;;;;;;0.10;0.10;;;;;;;;;;5092907;28;20055;-77
2022/02/05 13:27:43;;;;;;;0.03;0.03;;;;;;;;;;5070559;28;20135;-77
2022/02/05 13:36:00;;;;;;;0.20;0.20;;;;;;;;;;5082098;28;20046;-75
2022/02/05 13:38:29;;;;;;;0.20;0.20;;;;;;;;;;5080631;28;20075;-75
2022/02/05 13:40:59;;;;;;;0.55;0.55;;;;;;;;;;5055685;28;20028;-75
2022/02/05 13:43:40;;;;;;;0.10;0.10;;;;;;;;;;5069229;28;20063;-76
2022/02/05 13:46:24;;;;;;;0.22;0.15;;;;;;;;;;5072740;28;20032;-77
2022/02/05 13:48:50;;;;;;;0.10;0.10;;;;;;;;;;5080550;28;20797;-76
2022/02/05 13:51:16;;;;;;;0.93;0.40;;;;;;;;;;5068768;28;20028;-75
2022/02/05 13:53:49;;;;;;;0.10;0.10;;;;;;;;;;5084725;28;20092;-77
2022/02/05 13:56:16;;;;;;;0.10;0.10;;;;;;;;;;5067350;28;20044;-77
2022/02/05 13:58:43;;;;;;;0.00;0.00;;;;;;;;;;5082447;28;20051;-77
2022/02/05 14:01:09;;;;;;;0.25;0.25;;;;;;;;;;5080127;28;20036;-77
2022/02/05 14:03:40;;;;;;;0.47;0.20;;;;;;;;;;5090909;28;20423;-77
2022/02/05 14:06:13;;;;;;;0.10;0.10;;;;;;;;;;5082578;28;20262;-77
2022/02/05 14:08:43;;;;;;;0.10;0.10;;;;;;;;;;5079936;28;20028;-77
2022/02/05 14:11:10;;;;;;;2.08;1.25;;;;;;;;;;5076608;28;20024;-77
2022/02/05 14:13:37;;;;;;;0.10;0.10;;;;;;;;;;5067257;28;20036;-77
2022/02/05 14:16:04;;;;;;;0.00;0.00;;;;;;;;;;5072058;28;20024;-77
2022/02/05 14:18:34;;;;;;;0.10;0.10;;;;;;;;;;5075059;28;20024;-76
2022/02/05 14:21:02;;;;;;;0.10;0.10;;;;;;;;;;5067451;28;20035;-76
2022/02/05 14:23:29;;;;;;;0.00;0.00;;;;;;;;;;5070984;28;20041;-77
2022/02/05 14:26:09;;;;;;;0.10;0.10;;;;;;;;;;5067877;28;20466;-76
2022/02/05 14:29:03;;;;;;;0.10;0.10;;;;;;;;;;5071093;28;20024;-76
2022/02/05 14:42:07;;;;;;;0.47;0.45;;;;;;;;;;5082146;28;20062;-77
2022/02/05 14:44:33;;;;;;;0.10;0.10;;;;;;;;;;5075378;28;20050;-76
2022/02/05 14:47:00;;;;;;;0.03;0.03;;;;;;;;;;5079546;28;20029;-76
2022/02/05 14:49:26;;;;;;;0.00;0.00;;;;;;;;;;5077138;28;20024;-77
2022/02/05 14:51:53;;;;;;;0.10;0.10;;;;;;;;;;5091104;28;20580;-76
2022/02/05 14:54:19;;;;;;;0.05;0.05;;;;;;;;;;5081803;28;20082;-76
2022/02/05 14:56:45;;;;;;;0.10;0.10;;;;;;;;;;5059827;28;20653;-76
2022/02/05 14:59:11;;;;;;;0.10;0.10;;;;;;;;;;5081778;28;20282;-76
2022/02/05 15:01:37;;;;;;;0.00;0.00;;;;;;;;;;5078785;28;20024;-76
2022/02/05 15:04:04;;;;;;;0.10;0.10;;;;;;;;;;5073694;28;20108;-82
2022/02/05 15:06:32;;;;;;;0.47;0.40;;;;;;;;;;5066262;28;20062;-82
2022/02/05 15:09:00;;;;;;;0.10;0.10;;;;;;;;;;5078968;28;20043;-82
2022/02/05 15:11:27;;;;;;;0.10;0.10;;;;;;;;;;5061762;28;20024;-82
2022/02/05 15:13:56;;;;;;;0.10;0.10;;;;;;;;;;5075735;28;20111;-82
2022/02/05 15:16:22;;;;;;;0.10;0.10;;;;;;;;;;5070123;28;20066;-81
2022/02/05 15:18:53;;;;;;;0.17;0.17;;;;;;;;;;5070407;28;20035;-81
2022/02/05 15:21:20;;;;;;;0.20;0.20;;;;;;;;;;5067393;28;20095;-81
2022/02/05 15:23:46;;;;;;;1.27;1.17;;;;;;;;;;5068819;28;20089;-82
2022/02/05 15:26:12;;;;;;;0.10;0.10;;;;;;;;;;5069768;28;20404;-82
2022/02/05 15:28:38;;;;;;;0.10;0.10;;;;;;;;;;5073010;28;20036;-81
2022/02/05 15:31:05;;;;;;;0.10;0.10;;;;;;;;;;5081177;28;20286;-82
2022/02/05 15:33:32;;;;;;;0.13;0.10;;;;;;;;;;5066278;28;20127;-82
2022/02/05 15:36:04;;;;;;;0.20;0.20;;;;;;;;;;5069014;28;20112;-81
2022/02/05 15:38:41;;;;;;;0.10;0.10;;;;;;;;;;5075558;28;20040;-82
2022/02/05 15:46:06;;;;;;;0.10;0.10;;;;;;;;;;5066778;28;20044;-82
2022/02/05 15:48:32;;;;;;;0.10;0.10;;;;;;;;;;5081213;28;20024;-82
2022/02/05 15:50:59;;;;;;;0.10;0.10;;;;;;;;;;5062010;28;20043;-82
2022/02/05 15:53:25;;;;;;;0.10;0.10;;;;;;;;;;5068025;28;20064;-82
2022/02/05 15:55:51;;;;;;;0.10;0.10;;;;;;;;;;5069589;28;20062;-82
2022/02/05 15:58:23;;;;;;;0.10;0.10;;;;;;;;;;5069829;28;20039;-82
2022/02/05 16:00:49;;;;;;;0.00;0.00;;;;;;;;;;5080850;28;20071;-82
2022/02/05 16:03:15;;;;;;;0.10;0.10;;;;;;;;;;5066565;28;20486;-82
2022/02/05 16:05:42;;;;;;;0.10;0.10;;;;;;;;;;5068158;28;20028;-82
2022/02/05 16:08:08;;;;;;;0.10;0.10;;;;;;;;;;5072043;28;20288;-82
2022/02/05 16:10:34;;;;;;;0.10;0.10;;;;;;;;;;5077051;28;20039;-82
2022/02/05 16:13:00;;;;;;;0.13;0.13;;;;;;;;;;5067690;28;20028;-81
2022/02/05 16:15:27;;;;;;;0.40;0.40;;;;;;;;;;5065981;28;20468;-82
2022/02/05 16:17:53;;;;;;;0.38;0.38;;;;;;;;;;5069225;28;20039;-82
2022/02/05 16:20:23;;;;;;;0.10;0.10;;;;;;;;;;5073997;28;20048;-82
2022/02/05 16:22:49;;;;;;;0.10;0.10;;;;;;;;;;5072749;28;20411;-82
2022/02/05 16:25:21;;;;;;;0.17;0.17;;;;;;;;;;5073957;28;20043;-80
2022/02/05 16:27:50;;;;;;;0.20;0.20;;;;;;;;;;5065254;28;20301;-82
2022/02/05 16:30:17;;;;;;;0.00;0.00;;;;;;;;;;5071516;28;20036;-82
2022/02/05 16:32:43;;;;;;;0.10;0.10;;;;;;;;;;5070467;28;20648;-82
2022/02/05 16:35:12;;;;;;;1.55;0.35;;;;;;;;;;5075469;28;20120;-83
2022/02/05 16:37:40;;;;;;;0.10;0.10;;;;;;;;;;5073221;28;20016;-83
2022/02/05 16:40:09;;;;;;;0.10;0.10;;;;;;;;;;5072226;28;20054;-84
2022/02/05 16:42:35;;;;;;;0.10;0.10;;;;;;;;;;5070174;28;20590;-92
2022/02/05 16:45:02;;;;;;;0.20;0.20;;;;;;;;;;5084941;28;20071;-91
2022/02/05 16:47:29;;;;;;;0.10;0.10;;;;;;;;;;5065041;28;20028;-88
2022/02/05 16:49:55;;;;;;;0.20;0.20;;;;;;;;;;5060275;28;20048;-91
2022/02/05 16:52:24;;;;;;;0.10;0.10;;;;;;;;;;5065487;28;20075;-82
2022/02/05 16:54:50;;;;;;;0.10;0.10;;;;;;;;;;5067594;28;20032;-81
2022/02/05 16:57:16;;;;;;;0.10;0.10;;;;;;;;;;5062977;28;20486;-82
2022/02/05 16:59:42;;;;;;;0.10;0.10;;;;;;;;;;5077102;28;20796;-81
2022/02/05 17:02:08;;;;;;;0.30;0.30;;;;;;;;;;5071042;28;20103;-82
2022/02/05 17:04:35;;;;;;;17.77;1.00;;;;;;;;;;5079057;28;20534;-82
2022/02/05 17:07:04;;;;;;;2.80;1.50;;;;;;;;;;5075251;28;20032;-82
2022/02/05 17:09:37;;;;;;;6.82;1.50;;;;;;;;;;5075007;28;20354;-82
2022/02/05 17:12:09;;;;;;;0.60;0.60;;;;;;;;;;5073603;28;20055;-82
2022/02/05 17:14:38;;;;;;;3.40;1.15;;;;;;;;;;5067693;28;20080;-82
2022/02/05 17:17:05;;;;;;;1.73;1.63;;;;;;;;;;5071194;28;20035;-82
2022/02/05 17:19:31;;;;;;;0.68;0.52;;;;;;;;;;5076151;28;20043;-82
2022/02/05 17:22:00;;;;;;;0.30;0.30;;;;;;;;;;5084930;28;20027;-82
2022/02/05 17:24:26;;;;;;;10.27;1.30;;;;;;;;;;5065349;28;20040;-82
2022/02/05 17:26:53;;;;;;;0.82;0.82;;;;;;;;;;5079519;28;20028;-83
2022/02/05 17:29:19;;;;;;;2.95;1.55;;;;;;;;;;5079168;28;20407;-82
2022/02/05 17:31:45;;;;;;;0.10;0.10;;;;;;;;;;5077184;28;20558;-81
2022/02/05 17:34:11;;;;;;;0.60;0.53;;;;;;;;;;5074286;28;20876;-82
2022/02/05 17:36:37;;;;;;;0.52;0.52;;;;;;;;;;5057957;28;20119;-83
2022/02/05 17:39:06;;;;;;;0.40;0.40;;;;;;;;;;5066191;28;20080;-83
2022/02/05 17:41:32;;;;;;;0.60;0.52;;;;;;;;;;5072449;28;20240;-84
2022/02/05 17:43:58;;;;;;;1.02;0.73;;;;;;;;;;5068412;28;20082;-83
2022/02/05 17:46:25;;;;;;;2.80;1.77;;;;;;;;;;5074215;28;20118;-81
2022/02/05 17:48:54;;;;;;;2.83;1.85;;;;;;;;;;5060458;28;20054;-81
2022/02/05 17:51:29;;;;;;;1.52;1.48;;;;;;;;;;5076060;28;20052;-81
2022/02/05 17:53:55;;;;;;;1.17;1.05;;;;;;;;;;5060845;28;20097;-82
2022/02/05 17:56:21;;;;;;;3.95;1.45;;;;;;;;;;5072132;28;20024;-82
2022/02/05 17:58:47;;;;;;;0.20;0.20;;;;;;;;;;5070231;28;20024;-82